Terminal Aerodrome Forecast
Issued by NWS Greer, SC

Home | Current Version | Previous Version | Text Only | Print | Product List | Glossary On
Versions: 1 2 3 4 5 6 7 8 9 10 11 12 13 14 15 16 17 18 19 20 21 22 23 24 25 26 27
000
FTUS42 KGSP 281137
TAFAVL
TAF
KAVL 281137Z 2812/2912 17003KT 1SM BR SCT002 OVC006
      TEMPO 2812/2814 1/2SM FG OVC002
     FM281400 18004KT 4SM BR SCT006 OVC012
     FM281600 17007KT P6SM BKN025
     FM282000 18011G18KT P6SM SCT035
     FM290000 18006KT P6SM SCT040
     FM290600 18004KT 3SM BR SCT030
     FM290900 18003KT 1SM BR OVC005=

USA.gov is the U.S. government's official web portal to all federal, state and local government web resources and services.